createdAt,value
2023-05-02T00:02:18.438Z,17.02
2023-05-02T00:04:45.363Z,19.05
2023-05-02T00:07:12.204Z,17.60
2023-05-02T00:09:39.132Z,17.58
2023-05-02T00:12:06.097Z,20.30
2023-05-02T00:14:33.017Z,20.17
2023-05-02T00:16:59.868Z,16.80
2023-05-02T00:19:26.654Z,18.23
2023-05-02T00:21:53.390Z,18.65
2023-05-02T00:24:20.104Z,15.98
2023-05-02T00:26:46.946Z,16.98
2023-05-02T00:29:13.766Z,16.15
2023-05-02T00:31:43.560Z,14.75
2023-05-02T00:34:12.744Z,12.93
2023-05-02T00:36:39.445Z,13.48
2023-05-02T00:39:06.192Z,12.57
2023-05-02T00:41:33.021Z,11.48
2023-05-02T00:43:59.799Z,15.00
2023-05-02T00:46:27.323Z,9.10
2023-05-02T00:48:54.156Z,11.07
2023-05-02T00:51:21.208Z,11.73
2023-05-02T00:53:48.462Z,14.00
2023-05-02T00:56:15.342Z,10.48
2023-05-02T00:58:43.877Z,11.65
2023-05-02T01:01:36.009Z,10.43
2023-05-02T01:04:37.730Z,9.77
2023-05-02T01:07:41.930Z,7.43
2023-05-02T01:10:20.918Z,7.38
2023-05-02T01:13:05.316Z,8.10
2023-05-02T01:15:37.279Z,6.47
2023-05-02T01:18:09.356Z,10.50
2023-05-02T01:20:41.731Z,5.00
2023-05-02T01:23:39.992Z,7.75
2023-05-02T01:26:29.857Z,8.15
2023-05-02T01:29:03.339Z,8.20
2023-05-02T01:31:36.846Z,7.30
2023-05-02T01:34:08.221Z,5.82
2023-05-02T01:36:36.613Z,8.00
2023-05-02T01:39:07.450Z,6.07
2023-05-02T01:41:37.609Z,6.80
2023-05-02T01:44:07.433Z,6.43
2023-05-02T01:46:40.304Z,7.28
2023-05-02T01:49:09.525Z,4.97
2023-05-02T01:51:44.401Z,7.25
2023-05-02T01:54:16.549Z,9.68
2023-05-02T01:56:45.504Z,10.52
2023-05-02T01:59:17.051Z,5.72
2023-05-02T02:01:46.013Z,5.70
2023-05-02T02:04:16.719Z,6.80
2023-05-02T02:06:54.700Z,5.63
2023-05-02T02:09:21.812Z,4.68
2023-05-02T02:12:08.499Z,6.13
2023-05-02T02:14:42.019Z,5.65
2023-05-02T02:17:39.673Z,2.30
2023-05-02T02:20:10.666Z,3.00
2023-05-02T02:22:40.977Z,5.15
2023-05-02T02:25:16.820Z,6.85
2023-05-02T02:27:44.228Z,2.80
2023-05-02T02:30:11.871Z,3.53
2023-05-02T02:32:38.918Z,5.03
2023-05-02T02:35:09.747Z,5.00
2023-05-02T02:37:58.692Z,5.63
2023-05-02T02:40:58.073Z,4.83
2023-05-02T02:43:48.991Z,3.42
2023-05-02T02:46:46.818Z,8.15
2023-05-02T02:49:42.093Z,2.55
2023-05-02T02:53:02.930Z,2.90
2023-05-02T02:55:43.004Z,5.53
2023-05-02T02:58:43.338Z,7.25
2023-05-02T03:01:21.008Z,5.60
2023-05-02T03:03:51.279Z,3.30
2023-05-02T03:06:19.138Z,5.00
2023-05-02T03:08:46.009Z,5.32
2023-05-02T03:11:12.862Z,4.23
2023-05-02T03:13:39.662Z,5.50
2023-05-02T03:16:34.112Z,6.80
2023-05-02T03:19:01.161Z,2.28
2023-05-02T03:21:29.982Z,6.68
2023-05-02T03:23:58.462Z,5.25
2023-05-02T03:26:25.753Z,7.63
2023-05-02T03:28:53.160Z,5.27
2023-05-02T03:31:20.103Z,5.60
2023-05-02T03:33:48.379Z,6.63
2023-05-02T03:36:16.245Z,6.27
2023-05-02T03:38:42.996Z,3.47
2023-05-02T03:41:09.787Z,4.03
2023-05-02T03:43:37.662Z,6.53
2023-05-02T03:46:16.544Z,5.00
2023-05-02T03:48:45.578Z,2.90
2023-05-02T03:51:12.466Z,5.57
2023-05-02T03:53:39.408Z,5.68
2023-05-02T03:56:08.099Z,5.50
2023-05-02T03:58:38.705Z,4.63
2023-05-02T04:01:15.889Z,5.27
2023-05-02T04:03:43.644Z,5.00
2023-05-02T04:06:10.922Z,3.53
2023-05-02T04:08:37.640Z,4.87
2023-05-02T04:11:04.687Z,3.77
2023-05-02T04:13:31.926Z,6.63
2023-05-02T04:15:58.782Z,3.37
2023-05-02T04:18:25.679Z,7.20
2023-05-02T04:20:52.489Z,7.77
2023-05-02T04:23:19.280Z,5.90
2023-05-02T04:25:56.512Z,6.37
2023-05-02T04:28:24.055Z,4.90
2023-05-02T04:30:51.738Z,4.33
2023-05-02T04:33:19.001Z,7.20
2023-05-02T04:35:46.240Z,4.97
2023-05-02T04:38:14.513Z,5.17
2023-05-02T04:40:41.815Z,3.60
2023-05-02T04:43:08.559Z,3.27
2023-05-02T04:45:36.771Z,9.13
2023-05-02T04:48:04.734Z,4.17
2023-05-02T04:50:32.212Z,7.47
2023-05-02T04:52:59.474Z,6.83
2023-05-02T04:55:26.372Z,6.70
2023-05-02T04:57:53.095Z,6.70
2023-05-02T05:00:20.174Z,4.17
2023-05-02T05:02:46.974Z,4.40
2023-05-02T05:05:13.825Z,8.23
2023-05-02T05:07:40.969Z,4.90
2023-05-02T05:10:08.572Z,8.10
2023-05-02T05:12:35.300Z,8.77
2023-05-02T05:15:02.089Z,7.57
2023-05-02T05:17:28.886Z,6.47
2023-05-02T05:19:55.852Z,6.90
2023-05-02T05:22:22.782Z,7.20
2023-05-02T05:24:53.918Z,6.63
2023-05-02T05:27:21.541Z,10.30
2023-05-02T05:29:48.493Z,7.67
2023-05-02T05:32:15.284Z,8.53
2023-05-02T05:34:42.060Z,10.60
2023-05-02T05:37:08.926Z,7.43
2023-05-02T05:39:35.781Z,7.60
2023-05-02T05:42:03.741Z,8.07
2023-05-02T05:44:31.584Z,3.97
2023-05-02T05:46:58.418Z,10.00
2023-05-02T05:49:25.205Z,9.17
2023-05-02T05:51:52.216Z,7.73
2023-05-02T05:54:21.206Z,6.80
2023-05-02T05:56:48.230Z,6.07
2023-05-02T05:59:15.018Z,8.27
2023-05-02T06:01:42.536Z,8.50
2023-05-02T06:04:09.450Z,10.93
2023-05-02T06:06:36.273Z,3.13
2023-05-02T06:09:04.335Z,4.57
2023-05-02T06:11:31.130Z,5.87
2023-05-02T06:13:58.950Z,3.57
2023-05-02T06:16:25.987Z,5.50
2023-05-02T06:18:53.975Z,4.97
2023-05-02T06:21:20.804Z,6.77
2023-05-02T06:23:49.994Z,7.97
2023-05-02T06:26:16.822Z,4.47
2023-05-02T06:28:44.269Z,6.10
2023-05-02T06:31:11.035Z,4.45
2023-05-02T06:33:37.974Z,7.37
2023-05-02T06:36:04.879Z,5.43
2023-05-02T06:38:31.671Z,5.87
2023-05-02T06:40:58.398Z,5.73
2023-05-02T06:43:25.216Z,4.53
2023-05-02T06:45:58.807Z,4.80
2023-05-02T06:48:25.661Z,4.20
2023-05-02T06:50:58.532Z,9.27
2023-05-02T06:53:25.357Z,3.42
2023-05-02T06:55:53.366Z,5.75
2023-05-02T06:58:20.116Z,5.43
2023-05-02T07:00:49.050Z,8.60
2023-05-02T07:03:16.179Z,3.67
2023-05-02T07:05:42.926Z,2.33
2023-05-02T07:08:10.696Z,7.20
2023-05-02T07:10:37.424Z,3.83
2023-05-02T07:13:04.187Z,3.78
2023-05-02T07:15:30.984Z,4.90
2023-05-02T07:17:57.780Z,7.23
2023-05-02T07:20:24.566Z,5.30
2023-05-02T07:22:51.344Z,4.57
2023-05-02T07:25:18.136Z,7.13
2023-05-02T07:27:44.914Z,4.35
2023-05-02T07:30:12.577Z,3.30
2023-05-02T07:32:42.064Z,7.93
2023-05-02T07:35:09.988Z,10.73
2023-05-02T07:37:37.008Z,5.22
2023-05-02T07:40:04.935Z,7.27
2023-05-02T07:42:35.205Z,8.75
2023-05-02T07:45:02.482Z,6.63
2023-05-02T07:47:29.417Z,6.25
2023-05-02T07:49:56.640Z,15.00
2023-05-02T07:52:23.704Z,7.07
2023-05-02T07:54:51.712Z,4.47
2023-05-02T07:57:19.009Z,8.13
2023-05-02T07:59:45.804Z,6.78
2023-05-02T08:02:14.287Z,5.60
2023-05-02T08:04:41.720Z,4.03
2023-05-02T08:07:08.770Z,3.63
2023-05-02T08:09:35.600Z,4.68
2023-05-02T08:12:03.654Z,4.35
2023-05-02T08:14:31.930Z,3.67
2023-05-02T08:16:59.842Z,3.40
2023-05-02T08:19:27.323Z,8.07
2023-05-02T08:21:55.120Z,8.43
2023-05-02T08:24:22.489Z,7.85
2023-05-02T08:26:49.477Z,4.82
2023-05-02T08:29:16.707Z,5.95
2023-05-02T08:31:43.558Z,4.43
2023-05-02T08:34:10.301Z,6.68
2023-05-02T08:36:37.370Z,4.63
2023-05-02T08:39:04.462Z,4.97
2023-05-02T08:41:31.431Z,1.77
2023-05-02T08:44:00.378Z,2.80
2023-05-02T08:46:29.149Z,8.70
2023-05-02T08:48:59.038Z,4.57
2023-05-02T08:51:29.624Z,3.22
2023-05-02T08:53:58.504Z,3.83
2023-05-02T08:56:26.148Z,4.00
2023-05-02T08:58:52.866Z,4.40
2023-05-02T09:01:24.007Z,5.82
2023-05-02T09:03:52.726Z,4.18
2023-05-02T09:06:22.140Z,4.68
2023-05-02T09:08:54.674Z,6.65
2023-05-02T09:11:22.095Z,1.75
2023-05-02T09:13:52.019Z,4.07
2023-05-02T09:16:23.141Z,2.65
2023-05-02T09:18:58.404Z,3.05
2023-05-02T09:21:43.449Z,2.97
2023-05-02T09:24:38.217Z,1.95
2023-05-02T09:27:05.753Z,4.78
2023-05-02T09:29:38.669Z,0.65
2023-05-02T09:32:06.850Z,4.72
2023-05-02T09:34:34.964Z,2.17
2023-05-02T09:37:04.203Z,4.30
2023-05-02T09:39:33.972Z,3.38
2023-05-02T09:42:01.781Z,3.75
2023-05-02T09:44:38.269Z,3.00
2023-05-02T09:47:06.745Z,4.43
2023-05-02T09:49:45.676Z,4.75
2023-05-02T09:52:18.639Z,1.67
2023-05-02T09:54:51.069Z,2.92
2023-05-02T09:57:18.147Z,3.83
2023-05-02T09:59:57.301Z,5.30
2023-05-02T10:02:26.004Z,4.47
2023-05-02T10:05:02.822Z,2.95
2023-05-02T10:07:30.416Z,4.25
2023-05-02T10:10:01.701Z,3.17
2023-05-02T10:12:33.078Z,5.53
2023-05-02T10:15:04.808Z,4.88
2023-05-02T10:17:42.170Z,2.70
2023-05-02T10:20:12.936Z,4.72
2023-05-02T10:22:40.638Z,3.60
2023-05-02T10:25:08.138Z,5.22
2023-05-02T10:27:34.894Z,5.53
2023-05-02T10:30:04.457Z,4.28
2023-05-02T10:32:35.014Z,6.20
2023-05-02T10:35:07.401Z,2.78
2023-05-02T10:37:38.452Z,6.63
2023-05-02T10:40:11.468Z,6.40
2023-05-02T10:42:42.984Z,6.50
2023-05-02T10:45:33.548Z,2.10
2023-05-02T10:48:27.025Z,6.75
2023-05-02T10:51:01.691Z,4.50
2023-05-02T10:53:39.420Z,3.22
2023-05-02T10:56:28.389Z,4.50
2023-05-02T10:59:36.839Z,4.85
2023-05-02T11:02:07.200Z,3.42
2023-05-02T11:05:08.935Z,5.10
2023-05-02T11:07:37.612Z,3.92
2023-05-02T11:10:22.272Z,2.88
2023-05-02T11:13:01.296Z,4.50
2023-05-02T11:15:28.052Z,2.83
2023-05-02T11:18:03.079Z,4.70
2023-05-02T11:20:31.855Z,4.35
2023-05-02T11:23:27.003Z,3.80
2023-05-02T11:25:57.088Z,5.85
2023-05-02T11:28:47.684Z,7.25
2023-05-02T11:31:55.562Z,5.15
2023-05-02T11:34:22.927Z,5.28
2023-05-02T11:36:49.710Z,3.63
2023-05-02T11:39:21.777Z,4.53
2023-05-02T11:41:50.996Z,5.55
2023-05-02T11:44:17.959Z,5.75
2023-05-02T11:46:45.034Z,3.45
2023-05-02T11:49:14.900Z,4.22
2023-05-02T11:51:42.296Z,7.35
2023-05-02T11:54:10.261Z,6.50
2023-05-02T11:56:39.486Z,4.97
2023-05-02T11:59:06.390Z,6.07
2023-05-02T12:01:33.158Z,6.50
2023-05-02T12:04:26.399Z,3.95
2023-05-02T12:06:59.249Z,5.28
2023-05-02T12:09:26.059Z,5.65
2023-05-02T12:11:53.829Z,4.25
2023-05-02T12:14:35.469Z,5.35
2023-05-02T12:17:04.243Z,5.28
2023-05-02T12:19:31.123Z,3.95
2023-05-02T12:21:58.528Z,4.40
2023-05-02T12:24:27.039Z,5.85
2023-05-02T12:27:14.667Z,6.40
2023-05-02T12:29:43.928Z,5.13
2023-05-02T12:32:12.357Z,4.00
2023-05-02T12:34:40.656Z,3.45
2023-05-02T12:37:09.184Z,6.85
2023-05-02T12:39:42.532Z,6.57
2023-05-02T12:42:14.732Z,6.88
2023-05-02T12:44:45.743Z,6.15
2023-05-02T12:47:17.031Z,4.72
2023-05-02T12:49:59.338Z,2.88
2023-05-02T12:52:48.564Z,4.22
2023-05-02T12:55:18.277Z,4.45
2023-05-02T12:57:45.558Z,7.80
2023-05-02T13:00:18.957Z,4.75
2023-05-02T13:02:45.863Z,5.82
2023-05-02T13:05:20.267Z,4.78
2023-05-02T13:07:47.313Z,5.53
2023-05-02T13:10:15.109Z,5.35
2023-05-02T13:12:42.012Z,2.97
2023-05-02T13:15:09.259Z,4.80
2023-05-02T13:17:36.270Z,5.47
2023-05-02T13:20:03.457Z,7.90
2023-05-02T13:22:30.600Z,3.22
2023-05-02T13:24:57.352Z,3.80
2023-05-02T13:27:24.386Z,5.50
2023-05-02T13:29:52.118Z,6.30
2023-05-02T13:32:19.691Z,7.40
2023-05-02T13:34:48.029Z,4.47
2023-05-02T13:37:14.866Z,4.30
2023-05-02T13:39:41.618Z,5.65
2023-05-02T13:42:08.481Z,5.53
2023-05-02T13:44:40.364Z,4.90
2023-05-02T13:47:07.172Z,3.95
2023-05-02T13:49:33.906Z,5.72
2023-05-02T13:52:00.701Z,5.30
2023-05-02T13:54:27.879Z,3.90
2023-05-02T13:56:55.623Z,3.42
2023-05-02T13:59:24.757Z,4.72
2023-05-02T14:01:51.570Z,4.00
2023-05-02T14:04:18.465Z,6.18
2023-05-02T14:06:45.350Z,6.35
2023-05-02T14:09:12.154Z,5.38
2023-05-02T14:11:38.866Z,3.90
2023-05-02T14:14:05.589Z,3.95
2023-05-02T14:16:32.796Z,6.05
2023-05-02T14:18:59.603Z,3.85
2023-05-02T14:21:27.205Z,2.17
2023-05-02T14:23:55.099Z,6.30
2023-05-02T14:26:21.881Z,3.08
2023-05-02T14:28:48.760Z,5.72
2023-05-02T14:31:15.757Z,2.47
2023-05-02T14:33:42.557Z,3.15
2023-05-02T14:36:09.383Z,2.75
2023-05-02T14:38:36.125Z,3.85
2023-05-02T14:41:03.214Z,5.50
2023-05-02T14:43:30.061Z,5.05
2023-05-02T14:45:57.662Z,4.00
2023-05-02T14:48:24.457Z,3.92
2023-05-02T14:50:53.626Z,5.47
2023-05-02T14:53:24.321Z,4.95
2023-05-02T14:55:51.032Z,6.50
2023-05-02T14:58:20.958Z,3.00
2023-05-02T15:00:48.218Z,5.43
2023-05-02T15:03:15.280Z,2.58
2023-05-02T15:05:42.181Z,4.60
2023-05-02T15:08:09.119Z,2.45
2023-05-02T15:10:39.685Z,2.25
2023-05-02T15:13:07.456Z,4.57
2023-05-02T15:15:34.831Z,3.15
2023-05-02T15:18:01.587Z,2.90
2023-05-02T15:20:28.389Z,3.55
2023-05-02T15:22:55.563Z,2.75
2023-05-02T15:25:22.270Z,9.05
2023-05-02T15:27:51.619Z,4.25
2023-05-02T15:30:19.192Z,5.05
2023-05-02T15:32:46.716Z,10.48
2023-05-02T15:35:13.659Z,4.03
2023-05-02T15:37:40.441Z,3.35
2023-05-02T15:40:11.337Z,4.20
2023-05-02T15:42:40.736Z,5.18
2023-05-02T15:45:13.465Z,3.75
2023-05-02T15:47:40.758Z,4.38
2023-05-02T15:50:08.487Z,3.75
2023-05-02T15:52:35.221Z,2.38
2023-05-02T15:55:02.587Z,2.38
2023-05-02T15:57:29.518Z,2.58
2023-05-02T15:59:56.220Z,1.95
2023-05-02T16:02:23.163Z,2.08
2023-05-02T16:04:49.917Z,1.55
2023-05-02T16:07:16.634Z,3.00
2023-05-02T16:09:43.363Z,2.47
2023-05-02T16:12:10.278Z,2.28
2023-05-02T16:14:37.015Z,2.35
2023-05-02T16:17:03.976Z,2.58
2023-05-02T16:19:30.819Z,3.28
2023-05-02T16:21:57.611Z,1.95
2023-05-02T16:24:25.962Z,2.97
2023-05-02T16:26:52.782Z,3.05
2023-05-02T16:29:22.592Z,1.55
2023-05-02T16:31:49.313Z,1.75
2023-05-02T16:34:16.446Z,3.58
2023-05-02T16:36:43.184Z,2.03
2023-05-02T16:39:12.920Z,1.52
2023-05-02T16:41:39.711Z,5.30
2023-05-02T16:44:06.525Z,1.98
2023-05-02T16:46:33.368Z,2.63
2023-05-02T16:49:00.155Z,2.92
2023-05-02T16:51:29.736Z,1.75
2023-05-02T16:53:56.473Z,2.30
2023-05-02T16:56:23.337Z,1.45
2023-05-02T16:58:50.096Z,3.72
2023-05-02T17:01:17.243Z,4.07
2023-05-02T17:03:46.664Z,1.65
2023-05-02T17:06:16.123Z,1.42
2023-05-02T17:08:44.945Z,1.98
2023-05-02T17:11:12.012Z,2.53
2023-05-02T17:13:38.856Z,2.15
2023-05-02T17:16:06.626Z,1.35
2023-05-02T17:18:34.394Z,5.10
2023-05-02T17:21:03.333Z,2.42
2023-05-02T17:23:30.994Z,2.80
2023-05-02T17:25:57.809Z,1.48
2023-05-02T17:28:24.538Z,2.42
2023-05-02T17:30:54.567Z,2.25
2023-05-02T17:33:25.061Z,1.85
2023-05-02T17:35:52.202Z,2.72
2023-05-02T17:38:19.021Z,3.55
2023-05-02T17:40:48.301Z,1.92
2023-05-02T17:43:15.061Z,3.35
2023-05-02T17:45:41.963Z,2.28
2023-05-02T17:48:08.732Z,3.10
2023-05-02T17:50:41.756Z,2.45
2023-05-02T17:53:09.127Z,2.00
2023-05-02T17:55:39.498Z,1.83
2023-05-02T17:58:06.383Z,2.35
2023-05-02T18:00:33.892Z,0.77
2023-05-02T18:03:00.656Z,2.53
2023-05-02T18:05:30.257Z,1.67
2023-05-02T18:07:58.774Z,3.42
2023-05-02T18:10:25.567Z,1.90
2023-05-02T18:12:54.849Z,2.95
2023-05-02T18:15:21.895Z,2.50
2023-05-02T18:17:48.686Z,1.85
2023-05-02T18:20:15.436Z,1.40
2023-05-02T18:22:42.629Z,1.90
2023-05-02T18:25:09.644Z,0.47
2023-05-02T18:27:36.453Z,2.15
2023-05-02T18:30:03.650Z,1.02
2023-05-02T18:32:34.020Z,1.13
2023-05-02T18:35:01.951Z,2.15
2023-05-02T18:37:32.534Z,2.90
2023-05-02T18:39:59.596Z,0.45
2023-05-02T18:42:27.414Z,1.33
2023-05-02T18:44:54.249Z,0.90
2023-05-02T18:47:21.444Z,0.77
2023-05-02T18:49:48.475Z,2.28
2023-05-02T18:52:15.221Z,0.55
2023-05-02T18:54:41.950Z,1.85
2023-05-02T18:57:08.719Z,1.02
2023-05-02T18:59:35.440Z,0.50
2023-05-02T19:02:02.137Z,2.55
2023-05-02T19:04:31.889Z,1.48
2023-05-02T19:06:58.670Z,1.65
2023-05-02T19:09:25.425Z,1.80
2023-05-02T19:11:54.952Z,0.85
2023-05-02T19:14:21.820Z,1.75
2023-05-02T19:16:49.699Z,0.60
2023-05-02T19:19:17.407Z,1.27
2023-05-02T19:21:46.106Z,1.05
2023-05-02T19:24:13.064Z,1.85
2023-05-02T19:26:39.764Z,1.40
2023-05-02T19:29:06.469Z,0.70
2023-05-02T19:31:34.311Z,1.77
2023-05-02T19:34:01.193Z,1.17
2023-05-02T19:36:27.959Z,2.15
2023-05-02T19:38:57.925Z,0.70
2023-05-02T19:41:25.741Z,5.00
2023-05-02T19:43:52.808Z,2.58
2023-05-02T19:46:21.129Z,2.00
2023-05-02T19:48:48.094Z,0.45
2023-05-02T19:51:14.967Z,1.70
2023-05-02T19:53:41.735Z,0.60
2023-05-02T19:56:08.527Z,2.25
2023-05-02T19:58:35.847Z,2.47
2023-05-02T20:01:03.556Z,2.42
2023-05-02T20:03:31.997Z,1.40
2023-05-02T20:05:58.965Z,2.38
2023-05-02T20:08:27.697Z,2.50
2023-05-02T20:10:56.172Z,4.63
2023-05-02T20:13:23.171Z,2.30
2023-05-02T20:15:55.506Z,1.73
2023-05-02T20:18:22.280Z,4.05
2023-05-02T20:20:49.032Z,2.42
2023-05-02T20:23:16.222Z,2.25
2023-05-02T20:25:43.750Z,1.85
2023-05-02T20:28:10.732Z,1.02
2023-05-02T20:30:39.659Z,1.88
2023-05-02T20:33:14.714Z,3.22
2023-05-02T20:35:43.849Z,2.35
2023-05-02T20:38:11.107Z,2.83
2023-05-02T20:40:42.681Z,2.67
2023-05-02T20:43:09.556Z,1.27
2023-05-02T20:45:36.345Z,2.42
2023-05-02T20:48:03.177Z,1.65
2023-05-02T20:50:30.072Z,2.42
2023-05-02T20:52:57.906Z,2.05
2023-05-02T20:55:24.897Z,1.27
2023-05-02T20:57:53.199Z,1.98
2023-05-02T21:00:22.596Z,1.73
2023-05-02T21:02:49.886Z,2.38
2023-05-02T21:05:16.855Z,0.95
2023-05-02T21:07:44.745Z,3.45
2023-05-02T21:10:11.611Z,3.28
2023-05-02T21:12:38.685Z,2.13
2023-05-02T21:15:07.251Z,2.40
2023-05-02T21:17:34.115Z,1.58
2023-05-02T21:20:01.151Z,1.63
2023-05-02T21:22:28.310Z,3.80
2023-05-02T21:24:55.048Z,2.13
2023-05-02T21:27:22.900Z,1.10
2023-05-02T21:29:52.393Z,1.50
2023-05-02T21:32:19.248Z,1.70
2023-05-02T21:34:46.054Z,1.50
2023-05-02T21:37:12.857Z,1.90
2023-05-02T21:39:39.565Z,3.22
2023-05-02T21:42:06.384Z,2.80
2023-05-02T21:44:33.145Z,1.95
2023-05-02T21:46:59.899Z,2.47
2023-05-02T21:49:30.173Z,3.23
2023-05-02T21:52:00.612Z,1.40
2023-05-02T21:54:27.358Z,2.63
2023-05-02T21:56:54.376Z,1.75
2023-05-02T21:59:21.226Z,1.00
2023-05-02T22:01:48.029Z,1.27
2023-05-02T22:04:14.791Z,1.40
2023-05-02T22:06:42.248Z,0.98
2023-05-02T22:09:12.536Z,1.90
2023-05-02T22:11:39.390Z,3.53
2023-05-02T22:14:06.497Z,2.23
2023-05-02T22:16:33.293Z,1.67
2023-05-02T22:19:01.547Z,2.07
2023-05-02T22:21:29.309Z,2.87
2023-05-02T22:23:56.793Z,3.07
2023-05-02T22:26:23.864Z,1.77
2023-05-02T22:28:51.541Z,3.70
2023-05-02T22:31:19.262Z,1.23
2023-05-02T22:33:51.707Z,1.63
2023-05-02T22:36:18.832Z,1.83
2023-05-02T22:38:45.560Z,1.43
2023-05-02T22:41:12.248Z,3.77
2023-05-02T22:43:39.059Z,2.97
2023-05-02T22:46:06.043Z,1.50
2023-05-02T22:48:32.829Z,1.87
2023-05-02T22:50:59.945Z,2.33
2023-05-02T22:53:26.652Z,3.10
2023-05-02T22:55:53.590Z,3.70
2023-05-02T22:58:20.353Z,2.73
2023-05-02T23:00:47.245Z,2.67
2023-05-02T23:03:14.086Z,1.80
2023-05-02T23:05:41.270Z,2.53
2023-05-02T23:08:08.027Z,2.10
2023-05-02T23:10:34.807Z,4.33
2023-05-02T23:13:01.522Z,2.20
2023-05-02T23:15:28.315Z,4.73
2023-05-02T23:17:55.450Z,1.93
2023-05-02T23:20:23.528Z,2.40
2023-05-02T23:22:51.134Z,1.60
2023-05-02T23:25:18.634Z,4.20
2023-05-02T23:27:45.648Z,1.73
2023-05-02T23:30:12.717Z,3.50
2023-05-02T23:32:41.118Z,2.03
2023-05-02T23:35:13.696Z,1.60
2023-05-02T23:37:41.383Z,3.10
2023-05-02T23:40:09.287Z,3.40
2023-05-02T23:42:39.905Z,2.70
2023-05-02T23:45:11.991Z,1.37
2023-05-02T23:47:38.819Z,2.03
2023-05-02T23:50:06.597Z,2.53
2023-05-02T23:52:33.774Z,2.27
2023-05-02T23:55:00.645Z,2.77
2023-05-02T23:57:30.342Z,2.77
2023-05-02T23:59:57.205Z,1.80
